createdAt,value
2022-07-29T00:04:38.858Z,100429.50
2022-07-29T00:09:43.081Z,100424.69
2022-07-29T00:14:55.408Z,100426.72
2022-07-29T00:19:56.862Z,100427.19
2022-07-29T00:24:58.382Z,100427.50
2022-07-29T00:29:59.843Z,100427.88
2022-07-29T00:35:20.247Z,100426.47
2022-07-29T00:40:23.571Z,100419.28
2022-07-29T00:45:25.260Z,100420.97
2022-07-29T00:50:27.431Z,100416.16
2022-07-29T00:55:29.963Z,100403.31
2022-07-29T01:00:31.782Z,100409.63
2022-07-29T01:05:49.952Z,100417.78
2022-07-29T01:10:54.122Z,100411.94
2022-07-29T01:16:04.369Z,100413.28
2022-07-29T01:21:24.281Z,100426.53
2022-07-29T01:27:13.122Z,100410.47
2022-07-29T01:32:33.942Z,100404.25
2022-07-29T01:38:04.691Z,100399.41
2022-07-29T01:43:15.464Z,100398.00
2022-07-29T01:48:28.835Z,100407.84
2022-07-29T01:53:38.010Z,100403.03
2022-07-29T01:58:42.449Z,100399.59
2022-07-29T02:03:46.995Z,100394.44
2022-07-29T02:08:49.961Z,100389.94
2022-07-29T02:13:55.730Z,100398.44
2022-07-29T02:19:00.068Z,100385.09
2022-07-29T02:24:03.576Z,100387.47
2022-07-29T02:29:05.945Z,100392.84
2022-07-29T02:34:09.312Z,100388.72
2022-07-29T02:39:13.021Z,100387.91
2022-07-29T02:44:17.701Z,100396.81
2022-07-29T02:49:34.989Z,100387.06
2022-07-29T02:54:43.256Z,100393.13
2022-07-29T02:59:48.704Z,100391.19
2022-07-29T03:04:51.303Z,100392.03
2022-07-29T03:09:53.572Z,100393.19
2022-07-29T03:14:55.560Z,100391.09
2022-07-29T03:19:57.272Z,100399.84
2022-07-29T03:24:58.718Z,100390.66
2022-07-29T03:30:00.210Z,100393.06
2022-07-29T03:35:01.857Z,100397.59
2022-07-29T03:40:08.087Z,100398.44
2022-07-29T03:45:13.277Z,100405.31
2022-07-29T03:50:16.086Z,100410.16
2022-07-29T03:55:17.891Z,100408.16
2022-07-29T04:00:20.396Z,100413.63
2022-07-29T04:05:22.213Z,100407.78
2022-07-29T04:10:31.392Z,100411.47
2022-07-29T04:15:33.758Z,100415.66
2022-07-29T04:20:35.385Z,100408.41
2022-07-29T04:25:41.136Z,100407.25
2022-07-29T04:30:43.822Z,100401.16
2022-07-29T04:35:49.944Z,100389.69
2022-07-29T04:40:53.728Z,100394.50
2022-07-29T04:45:56.172Z,100393.59
2022-07-29T04:50:57.685Z,100387.63
2022-07-29T04:56:00.079Z,100394.59
2022-07-29T05:01:01.689Z,100393.00
2022-07-29T05:06:03.296Z,100390.16
2022-07-29T05:11:11.752Z,100394.66
2022-07-29T05:16:15.171Z,100403.56
2022-07-29T05:21:16.761Z,100401.88
2022-07-29T05:26:18.228Z,100398.47
2022-07-29T05:31:19.819Z,100403.91
2022-07-29T05:36:21.337Z,100408.69
2022-07-29T05:41:22.828Z,100399.16
2022-07-29T05:46:24.356Z,100387.69
2022-07-29T05:51:25.919Z,100389.03
2022-07-29T05:56:27.695Z,100395.69
2022-07-29T06:01:29.190Z,100401.88
2022-07-29T06:06:30.698Z,100401.88
2022-07-29T06:11:32.187Z,100393.81
2022-07-29T06:16:33.737Z,100391.53
2022-07-29T06:21:35.265Z,100394.78
2022-07-29T06:26:40.992Z,100392.75
2022-07-29T06:31:42.526Z,100398.44
2022-07-29T06:36:43.987Z,100394.72
2022-07-29T06:41:51.518Z,100396.44
2022-07-29T06:46:54.009Z,100398.75
2022-07-29T06:51:56.195Z,100401.03
2022-07-29T06:56:57.640Z,100401.94
2022-07-29T07:01:59.105Z,100391.91
2022-07-29T07:07:00.707Z,100394.75
2022-07-29T07:12:02.609Z,100396.44
2022-07-29T07:17:04.958Z,100389.91
2022-07-29T07:22:06.606Z,100384.78
2022-07-29T07:27:08.095Z,100380.00
2022-07-29T07:32:09.721Z,100372.94
2022-07-29T07:37:11.340Z,100382.94
2022-07-29T07:42:13.892Z,100370.28
2022-07-29T07:47:20.625Z,100374.50
2022-07-29T07:52:23.587Z,100374.22
2022-07-29T07:57:25.030Z,100377.88
2022-07-29T08:02:26.596Z,100362.50
2022-07-29T08:07:28.201Z,100383.69
2022-07-29T08:12:29.709Z,100381.47
2022-07-29T08:17:31.228Z,100368.81
2022-07-29T08:22:36.901Z,100359.91
2022-07-29T08:27:43.778Z,100373.06
2022-07-29T08:32:54.457Z,100377.25
2022-07-29T08:37:57.761Z,100370.84
2022-07-29T08:43:00.792Z,100376.94
2022-07-29T08:48:02.376Z,100374.34
2022-07-29T08:53:04.278Z,100361.25
2022-07-29T08:58:06.501Z,100359.59
2022-07-29T09:03:11.955Z,100367.50
2022-07-29T09:08:17.108Z,100355.28
2022-07-29T09:13:18.929Z,100357.59
2022-07-29T09:18:34.342Z,100354.00
2022-07-29T09:23:35.974Z,100349.44
2022-07-29T09:28:42.964Z,100346.06
2022-07-29T09:33:44.509Z,100352.88
2022-07-29T09:38:58.896Z,100345.91
2022-07-29T09:44:01.022Z,100340.38
2022-07-29T09:49:13.926Z,100342.31
2022-07-29T09:54:28.619Z,100333.78
2022-07-29T09:59:30.162Z,100336.56
2022-07-29T10:04:43.009Z,100333.19
2022-07-29T10:09:58.202Z,100322.75
2022-07-29T10:15:02.558Z,100326.78
2022-07-29T10:20:06.020Z,100320.81
2022-07-29T10:25:08.507Z,100323.56
2022-07-29T10:30:10.954Z,100308.28
2022-07-29T10:35:30.834Z,100310.13
2022-07-29T10:40:58.512Z,100315.81
2022-07-29T10:46:01.505Z,100309.34
2022-07-29T10:51:06.979Z,100304.13
2022-07-29T10:56:36.130Z,100295.63
2022-07-29T11:01:39.217Z,100291.81
2022-07-29T11:06:59.678Z,100302.81
2022-07-29T11:12:37.006Z,100292.28
2022-07-29T11:17:53.662Z,100288.16
2022-07-29T11:22:55.176Z,100295.53
2022-07-29T11:28:11.753Z,100295.53
2022-07-29T11:33:54.394Z,100291.75
2022-07-29T11:39:26.465Z,100299.63
2022-07-29T11:45:08.445Z,100295.88
2022-07-29T11:50:33.460Z,100298.56
2022-07-29T11:55:38.440Z,100307.78
2022-07-29T12:00:55.688Z,100306.16
2022-07-29T12:05:57.660Z,100298.53
2022-07-29T12:10:59.505Z,100293.75
2022-07-29T12:16:01.558Z,100289.47
2022-07-29T12:21:07.689Z,100273.97
2022-07-29T12:26:10.587Z,100278.38
2022-07-29T12:31:42.261Z,100268.13
2022-07-29T12:36:37.219Z,100257.06
2022-07-29T12:41:39.919Z,100265.69
2022-07-29T12:46:41.599Z,100252.38
2022-07-29T12:51:43.399Z,100248.53
2022-07-29T12:56:46.098Z,100257.47
2022-07-29T13:01:50.224Z,100256.16
2022-07-29T13:07:09.207Z,100247.75
2022-07-29T13:12:14.569Z,100235.63
2022-07-29T13:17:32.754Z,100225.75
2022-07-29T13:22:34.440Z,100223.44
2022-07-29T13:27:38.423Z,100217.81
2022-07-29T13:32:39.930Z,100220.22
2022-07-29T13:37:42.052Z,100215.16
2022-07-29T13:42:43.580Z,100209.78
2022-07-29T13:47:49.485Z,100213.44
2022-07-29T13:52:51.951Z,100215.50
2022-07-29T13:57:53.416Z,100212.56
2022-07-29T14:02:54.981Z,100206.34
2022-07-29T14:07:56.455Z,100198.78
2022-07-29T14:12:57.905Z,100207.25
2022-07-29T14:17:59.398Z,100195.34
2022-07-29T14:23:00.989Z,100199.56
2022-07-29T14:28:02.612Z,100198.25
2022-07-29T14:33:04.124Z,100195.72
2022-07-29T14:38:05.621Z,100184.38
2022-07-29T14:43:07.212Z,100185.25
2022-07-29T14:48:08.689Z,100192.41
2022-07-29T14:53:10.370Z,100190.63
2022-07-29T14:58:16.271Z,100186.19
2022-07-29T15:03:23.841Z,100181.22
2022-07-29T15:08:26.299Z,100185.47
2022-07-29T15:13:27.765Z,100178.91
2022-07-29T15:18:29.285Z,100173.94
2022-07-29T15:23:30.753Z,100173.41
2022-07-29T15:28:32.340Z,100180.63
2022-07-29T15:33:33.858Z,100168.84
2022-07-29T15:38:35.331Z,100160.66
2022-07-29T15:43:47.696Z,100155.19
2022-07-29T15:48:49.165Z,100163.19
2022-07-29T15:53:53.366Z,100158.03
2022-07-29T15:58:55.336Z,100157.25
2022-07-29T16:03:58.176Z,100156.03
2022-07-29T16:09:00.530Z,100148.81
2022-07-29T16:14:02.325Z,100147.59
2022-07-29T16:19:04.573Z,100153.97
2022-07-29T16:24:07.123Z,100140.41
2022-07-29T16:29:08.652Z,100150.16
2022-07-29T16:34:10.109Z,100143.38
2022-07-29T16:39:12.718Z,100139.44
2022-07-29T16:44:14.475Z,100134.69
2022-07-29T16:49:19.521Z,100137.09
2022-07-29T16:54:21.180Z,100139.22
2022-07-29T16:59:22.847Z,100132.75
2022-07-29T17:04:24.289Z,100136.78
2022-07-29T17:09:25.847Z,100136.84
2022-07-29T17:14:29.428Z,100125.66
2022-07-29T17:19:35.355Z,100124.19
2022-07-29T17:24:37.268Z,100123.63
2022-07-29T17:29:40.221Z,100128.97
2022-07-29T17:34:42.818Z,100135.59
2022-07-29T17:39:44.637Z,100132.88
2022-07-29T17:44:46.103Z,100143.84
2022-07-29T17:49:47.873Z,100146.84
2022-07-29T17:54:49.331Z,100147.72
2022-07-29T17:59:50.883Z,100154.50
2022-07-29T18:04:52.339Z,100152.38
2022-07-29T18:09:57.418Z,100160.84
2022-07-29T18:15:01.620Z,100163.59
2022-07-29T18:20:04.152Z,100165.94
2022-07-29T18:25:07.302Z,100165.53
2022-07-29T18:30:09.448Z,100168.44
2022-07-29T18:35:11.102Z,100161.66
2022-07-29T18:40:12.803Z,100163.34
2022-07-29T18:45:19.467Z,100165.47
2022-07-29T18:50:25.716Z,100161.63
2022-07-29T18:55:30.332Z,100160.13
2022-07-29T19:00:32.153Z,100162.88
2022-07-29T19:05:33.908Z,100158.63
2022-07-29T19:10:35.417Z,100157.75
2022-07-29T19:15:36.875Z,100160.06
2022-07-29T19:20:39.101Z,100153.91
2022-07-29T19:25:53.185Z,100155.31
2022-07-29T19:30:55.432Z,100153.00
2022-07-29T19:35:56.957Z,100160.81
2022-07-29T19:40:58.942Z,100153.81
2022-07-29T19:46:00.475Z,100155.91
2022-07-29T19:51:01.948Z,100146.09
2022-07-29T19:56:03.752Z,100141.84
2022-07-29T20:01:10.794Z,100146.66
2022-07-29T20:06:12.908Z,100158.47
2022-07-29T20:11:14.381Z,100159.88
2022-07-29T20:16:16.673Z,100157.31
2022-07-29T20:21:18.209Z,100155.34
2022-07-29T20:26:19.745Z,100156.78
2022-07-29T20:31:21.403Z,100162.69
2022-07-29T20:36:23.037Z,100161.41
2022-07-29T20:41:24.502Z,100161.06
2022-07-29T20:46:26.004Z,100165.47
2022-07-29T20:51:27.545Z,100173.94
2022-07-29T20:56:29.552Z,100172.69
2022-07-29T21:01:31.134Z,100171.41
2022-07-29T21:06:32.623Z,100168.47
2022-07-29T21:11:43.571Z,100163.38
2022-07-29T21:16:46.375Z,100150.66
2022-07-29T21:21:47.858Z,100143.84
2022-07-29T21:27:10.918Z,100139.81
2022-07-29T21:32:11.214Z,100147.16
2022-07-29T21:37:12.704Z,100131.84
2022-07-29T21:42:14.318Z,100130.06
2022-07-29T21:47:15.923Z,100134.84
2022-07-29T21:52:18.131Z,100148.09
2022-07-29T21:57:19.710Z,100146.72
2022-07-29T22:02:21.206Z,100151.09
2022-07-29T22:07:22.677Z,100156.00
2022-07-29T22:12:24.130Z,100127.59
2022-07-29T22:17:25.829Z,100122.22
2022-07-29T22:22:27.778Z,100133.97
2022-07-29T22:27:29.265Z,100134.13
2022-07-29T22:32:33.966Z,100111.47
2022-07-29T22:37:35.793Z,100104.09
2022-07-29T22:42:40.921Z,100104.88
2022-07-29T22:47:46.703Z,100090.97
2022-07-29T22:52:50.021Z,100085.03
2022-07-29T22:57:51.476Z,100079.06
2022-07-29T23:02:52.968Z,100082.44
2022-07-29T23:07:54.472Z,100081.69
2022-07-29T23:12:55.958Z,100090.72
2022-07-29T23:17:58.744Z,100076.81
2022-07-29T23:23:00.264Z,100074.22
2022-07-29T23:28:01.981Z,100067.78
2022-07-29T23:33:03.500Z,100061.00
2022-07-29T23:38:05.245Z,100069.31
2022-07-29T23:43:08.575Z,100055.22
2022-07-29T23:48:10.554Z,100057.19
2022-07-29T23:53:12.237Z,100060.78
2022-07-29T23:58:13.789Z,100048.78
